Accueil
METAR-TAF:

METAR-TAF

Aéroports :

Cassel, Allemagne

latitude: 51-24N, longitude: 009-23E, altitude: 277 m

Observation

Le bulletin a été fait il y a 18 minutes, à 15:50 UTC
Vent 4 kt de sud/sud-est
Température -3°C
Humidité 74%
Pression 1019 hPa
Visibilité: 9000 m

METAR: EDVK 211550Z 15004KT 9000 NSC M03/M07 Q1019

Heure: 17:08 (16:08 UTC)

Prévision

Le bulletin a été fait il y a 2 heures et 8 minutes, à 14:00 UTC
Prévision valable du 21 à 15 UTC au 21 à 24 UTC
Vent 4 kt de sud/sud-est
Visibilité: 8000 m
Probabilité 30% :
Temporairement
du 21 à 20 UTC au 21 à 24 UTC
Visibilité: 4000 m
brume

TAF: EDVK 211400Z 2115/2124 16004KT 8000 NSC PROB30 TEMPO 2120/2124 4000 BR

Observations et prévisions météorologiques de plus de 4000 aéroports (messages METAR et TAF).

Les stations disponibles sont représentées par des disques jaunes et rouges sur la carte.

Passer la souris dessus pour voir le nom de la station.

Cliquer dessus pour voir les observations et prévisions météorologiques.

Pour changer de carte: cliquez sur les boutons verts avec une croix noire pour zoomer, sur le bouton vert avec un tiret pour effectuer un zoom arrière, ou sur les flèches vertes pour les cartes adjacentes.


METAR-TAF: